Time;durP1;ratioP1;P1;durP2;ratioP2;P2;SDS_P1;SDS_P2;PMS_P1;PMS_P2;Temp;Humidity;BMP_temperature;BMP_pressure;BME280_temperature;BME280_humidity;BME280_pressure;Samples;Min_cycle;Max_cycle;Signal;HPM_P1;HPM_P2
2023/12/31 00:00:12;;;;;;;5.65;2.08;;;6.50;99.90;;;;;;4876919;29;20064;-61
2023/12/31 00:02:40;;;;;;;6.72;1.85;;;6.50;99.90;;;;;;4869424;29;20054;-60
2023/12/31 00:05:09;;;;;;;3.35;1.67;;;6.50;99.90;;;;;;4876370;29;20053;-61
2023/12/31 00:07:37;;;;;;;4.00;1.70;;;6.50;99.90;;;;;;4861804;29;20049;-61
2023/12/31 00:10:06;;;;;;;2.42;2.00;;;6.50;99.90;;;;;;4876424;29;20065;-61
2023/12/31 00:12:33;;;;;;;4.22;1.65;;;6.50;99.90;;;;;;4874910;29;20041;-61
2023/12/31 00:15:01;;;;;;;3.95;2.05;;;6.50;99.90;;;;;;4872530;29;20055;-63
2023/12/31 00:17:31;;;;;;;5.22;3.38;;;6.50;99.90;;;;;;4870313;29;20044;-61
2023/12/31 00:19:58;;;;;;;3.93;2.43;;;6.50;99.90;;;;;;4875917;29;20391;-60
2023/12/31 00:22:28;;;;;;;4.72;2.10;;;6.50;99.90;;;;;;4874416;29;20049;-61
2023/12/31 00:24:56;;;;;;;5.93;2.33;;;6.50;99.90;;;;;;4875970;29;20424;-61
2023/12/31 00:27:24;;;;;;;6.97;2.80;;;6.50;99.90;;;;;;4864949;29;20060;-61
2023/12/31 00:29:52;;;;;;;8.77;2.78;;;6.50;99.90;;;;;;4857622;29;20049;-61
2023/12/31 00:32:21;;;;;;;4.95;3.05;;;6.50;99.90;;;;;;4864708;29;20060;-61
2023/12/31 00:34:49;;;;;;;5.63;2.80;;;6.50;99.90;;;;;;4872188;29;20053;-60
2023/12/31 00:37:17;;;;;;;6.10;3.35;;;6.50;99.90;;;;;;4876229;29;20533;-61
2023/12/31 00:39:45;;;;;;;8.55;3.35;;;6.50;99.90;;;;;;4874600;29;20412;-60
2023/12/31 00:42:13;;;;;;;4.80;2.60;;;6.50;99.90;;;;;;4868508;29;20425;-60
2023/12/31 00:44:43;;;;;;;6.43;2.95;;;6.50;99.90;;;;;;4868748;29;20490;-61
2023/12/31 00:47:11;;;;;;;5.28;2.80;;;6.50;99.90;;;;;;4872670;29;20046;-61
2023/12/31 00:49:39;;;;;;;5.40;3.25;;;6.50;99.90;;;;;;4872429;29;20060;-61
2023/12/31 00:52:07;;;;;;;6.28;3.00;;;6.40;99.90;;;;;;4874453;29;20060;-63
2023/12/31 00:54:35;;;;;;;9.35;3.25;;;6.50;99.90;;;;;;4873981;29;20700;-60
2023/12/31 00:57:03;;;;;;;4.43;2.67;;;6.50;99.90;;;;;;4861919;29;20073;-59
2023/12/31 00:59:30;;;;;;;7.10;3.38;;;6.50;99.90;;;;;;4872654;29;20040;-60
2023/12/31 01:01:59;;;;;;;8.13;3.17;;;6.50;99.90;;;;;;4867644;29;20061;-61
2023/12/31 01:04:27;;;;;;;6.90;3.30;;;6.50;99.90;;;;;;4871079;29;20052;-60
2023/12/31 01:06:56;;;;;;;5.93;2.67;;;6.50;99.90;;;;;;4869122;29;20049;-61
2023/12/31 01:09:24;;;;;;;8.02;3.38;;;6.40;99.90;;;;;;4875119;29;20045;-60
2023/12/31 01:11:53;;;;;;;3.67;2.80;;;6.40;99.90;;;;;;4871017;29;20053;-63
2023/12/31 01:14:21;;;;;;;4.68;2.85;;;6.50;99.90;;;;;;4862460;29;20391;-62
2023/12/31 01:16:49;;;;;;;5.80;2.45;;;6.50;99.90;;;;;;4875254;29;20048;-60
2023/12/31 01:19:17;;;;;;;6.47;3.10;;;6.40;99.90;;;;;;4870514;29;20071;-60
2023/12/31 01:21:45;;;;;;;7.70;2.67;;;6.40;99.90;;;;;;4871958;29;20054;-61
2023/12/31 01:24:17;;;;;;;4.43;2.20;;;6.40;99.90;;;;;;4858573;29;20053;-61
2023/12/31 01:26:45;;;;;;;3.35;2.47;;;6.40;99.90;;;;;;4840264;29;20610;-62
2023/12/31 01:29:14;;;;;;;4.97;2.20;;;6.30;99.90;;;;;;4869998;29;20048;-60
2023/12/31 01:31:45;;;;;;;6.10;2.75;;;6.30;99.90;;;;;;4869781;29;20072;-60
2023/12/31 01:34:14;;;;;;;4.88;2.47;;;6.30;99.90;;;;;;4862729;29;20037;-61
2023/12/31 01:36:41;;;;;;;5.65;2.55;;;6.30;99.90;;;;;;4873434;29;20068;-62
2023/12/31 01:39:09;;;;;;;3.75;2.60;;;6.30;99.90;;;;;;4873486;29;20056;-62
2023/12/31 01:41:38;;;;;;;4.38;2.15;;;6.30;99.90;;;;;;4874872;29;20048;-61
2023/12/31 01:44:07;;;;;;;5.40;2.22;;;6.30;99.90;;;;;;4863965;29;20045;-63
2023/12/31 01:46:35;;;;;;;;;;;6.30;99.90;;;;;;4873607;29;20479;-61
2023/12/31 01:49:04;;;;;;;6.18;2.40;;;6.30;99.90;;;;;;4873239;29;19928;-63
2023/12/31 01:51:34;;;;;;;3.42;2.38;;;6.20;99.90;;;;;;4873746;29;20052;-65
2023/12/31 01:54:04;;;;;;;3.53;2.17;;;6.20;99.90;;;;;;4863745;29;20399;-65
2023/12/31 01:56:36;;;;;;;3.85;1.77;;;6.20;99.90;;;;;;4864771;29;20051;-61
2023/12/31 01:59:06;;;;;;;3.70;1.80;;;6.10;99.90;;;;;;4869088;29;20086;-60
2023/12/31 02:01:36;;;;;;;3.53;1.90;;;6.10;99.90;;;;;;4871722;29;20033;-61
2023/12/31 02:04:06;;;;;;;3.15;1.90;;;6.10;99.90;;;;;;4869273;29;20048;-62
2023/12/31 02:06:34;;;;;;;;;;;6.00;99.90;;;;;;4873951;29;20045;-62
2023/12/31 02:09:02;;;;;;;5.60;2.35;;;6.00;99.90;;;;;;4874182;29;19927;-61
2023/12/31 02:11:29;;;;;;;4.53;2.00;;;6.00;99.90;;;;;;4873207;29;20091;-62
2023/12/31 02:13:58;;;;;;;4.63;2.03;;;6.00;99.90;;;;;;4854493;29;20050;-63
2023/12/31 02:16:27;;;;;;;4.82;1.90;;;6.00;99.90;;;;;;4871722;29;20060;-61
2023/12/31 02:18:55;;;;;;;4.53;2.03;;;5.90;99.90;;;;;;4854464;29;20452;-61
2023/12/31 02:21:26;;;;;;;4.80;2.13;;;5.90;99.90;;;;;;4874489;29;20052;-64
2023/12/31 02:23:54;;;;;;;3.92;2.03;;;5.80;99.90;;;;;;4855449;29;20052;-62
2023/12/31 02:26:24;;;;;;;3.88;1.58;;;5.80;99.90;;;;;;4854659;29;20065;-70
2023/12/31 02:28:53;;;;;;;1.92;1.48;;;5.70;99.90;;;;;;4866218;29;20060;-71
2023/12/31 02:31:20;;;;;;;4.55;1.60;;;5.70;99.90;;;;;;4865874;29;20049;-61
2023/12/31 02:33:48;;;;;;;7.57;1.98;;;5.60;99.90;;;;;;4876000;29;20050;-61
2023/12/31 02:36:17;;;;;;;4.78;1.80;;;5.60;99.90;;;;;;4877524;29;20064;-61
2023/12/31 02:38:45;;;;;;;2.55;1.83;;;5.50;99.90;;;;;;4877270;29;20486;-61
2023/12/31 02:41:13;;;;;;;2.60;1.60;;;5.50;99.90;;;;;;4877479;29;20049;-61
2023/12/31 02:43:40;;;;;;;7.55;1.90;;;5.50;99.90;;;;;;4849600;29;20060;-61
2023/12/31 02:46:08;;;;;;;6.07;2.28;;;5.40;99.90;;;;;;4861505;29;20130;-64
2023/12/31 02:48:36;;;;;;;4.10;1.90;;;5.50;99.90;;;;;;4863497;29;20061;-62
2023/12/31 02:51:07;;;;;;;2.95;1.75;;;5.40;99.90;;;;;;4858962;29;20073;-61
2023/12/31 02:53:35;;;;;;;2.92;1.92;;;5.40;99.90;;;;;;4873078;29;20054;-60
2023/12/31 02:56:05;;;;;;;2.80;1.60;;;5.40;99.90;;;;;;4873487;29;20072;-60
2023/12/31 02:58:32;;;;;;;2.30;1.67;;;5.40;99.90;;;;;;4858220;29;20053;-60
2023/12/31 03:01:00;;;;;;;3.47;1.90;;;5.30;99.90;;;;;;4857789;29;20439;-61
2023/12/31 03:03:28;;;;;;;4.65;2.10;;;5.30;99.90;;;;;;4867297;29;20049;-61
2023/12/31 03:05:57;;;;;;;3.08;2.00;;;5.30;99.90;;;;;;4875668;29;20041;-62
2023/12/31 03:08:25;;;;;;;7.72;1.98;;;5.30;99.90;;;;;;4842422;29;20052;-62
2023/12/31 03:10:52;;;;;;;6.93;2.20;;;5.30;99.90;;;;;;4860668;29;20058;-61
2023/12/31 03:13:20;;;;;;;5.82;3.53;;;5.20;99.90;;;;;;4858651;29;20491;-60
2023/12/31 03:15:48;;;;;;;4.13;2.30;;;5.30;99.90;;;;;;4864786;29;20509;-60
2023/12/31 03:18:17;;;;;;;6.95;2.03;;;5.30;99.90;;;;;;4876800;29;20065;-60
2023/12/31 03:20:45;;;;;;;7.13;2.53;;;5.30;99.90;;;;;;4879474;29;20052;-60
2023/12/31 03:23:15;;;;;;;4.75;2.85;;;5.40;99.90;;;;;;4879457;29;20299;-60
2023/12/31 03:25:43;;;;;;;3.90;2.08;;;5.40;99.90;;;;;;4879302;29;20064;-61
2023/12/31 03:28:11;;;;;;;5.40;2.45;;;5.40;99.90;;;;;;4880300;29;20049;-62
2023/12/31 03:30:39;;;;;;;5.63;2.85;;;5.50;99.90;;;;;;4872804;29;20060;-61
2023/12/31 03:33:09;;;;;;;5.65;2.17;;;5.50;99.90;;;;;;4871047;29;20053;-62
2023/12/31 03:35:37;;;;;;;4.70;2.45;;;5.50;99.90;;;;;;4860579;29;20049;-61
2023/12/31 03:38:05;;;;;;;5.18;2.30;;;5.50;99.90;;;;;;4861763;29;20053;-66
2023/12/31 03:40:33;;;;;;;5.57;2.72;;;5.50;99.90;;;;;;4861755;29;20057;-60
2023/12/31 03:43:02;;;;;;;5.30;2.53;;;5.50;99.90;;;;;;4860334;29;20050;-60
2023/12/31 03:45:30;;;;;;;6.38;2.85;;;5.60;99.90;;;;;;4860540;29;20049;-62
2023/12/31 03:47:58;;;;;;;10.75;3.17;;;5.60;99.90;;;;;;4870245;29;20056;-62
2023/12/31 03:50:26;;;;;;;5.18;2.70;;;5.60;99.90;;;;;;4880028;29;20049;-61
2023/12/31 03:52:55;;;;;;;5.43;2.53;;;5.60;99.90;;;;;;4864745;29;20064;-61
2023/12/31 03:55:23;;;;;;;6.63;2.80;;;5.60;99.90;;;;;;4860248;29;20128;-61
2023/12/31 03:57:51;;;;;;;4.32;2.42;;;5.70;99.90;;;;;;4860318;29;20049;-61
2023/12/31 04:00:19;;;;;;;6.65;3.17;;;5.70;99.90;;;;;;4861446;29;20046;-60
2023/12/31 04:02:51;;;;;;;5.05;3.13;;;5.80;99.90;;;;;;4861245;29;20517;-60
2023/12/31 04:05:19;;;;;;;6.90;2.60;;;5.70;99.90;;;;;;4861169;29;20053;-61
2023/12/31 04:07:47;;;;;;;2.60;2.08;;;5.80;99.90;;;;;;4859862;29;20045;-61
2023/12/31 04:10:19;;;;;;;4.10;2.17;;;5.80;99.90;;;;;;4887454;29;20052;-61
2023/12/31 04:12:47;;;;;;;4.47;2.55;;;5.80;99.90;;;;;;4867378;29;20054;-61
2023/12/31 04:15:15;;;;;;;6.68;2.30;;;5.80;99.90;;;;;;4861136;29;20061;-61
2023/12/31 04:17:45;;;;;;;6.63;2.40;;;5.80;99.90;;;;;;4866917;29;20052;-61
2023/12/31 04:20:13;;;;;;;3.90;2.25;;;5.80;99.90;;;;;;4877628;29;20041;-60
2023/12/31 04:22:41;;;;;;;3.85;2.17;;;5.80;99.90;;;;;;4875799;29;20056;-61
2023/12/31 04:25:09;;;;;;;4.07;2.33;;;5.80;99.90;;;;;;4866554;29;20049;-61
2023/12/31 04:27:40;;;;;;;4.32;2.30;;;5.80;99.90;;;;;;4859816;29;20048;-62
2023/12/31 04:30:12;;;;;;;4.65;2.38;;;5.90;99.90;;;;;;4858508;29;20049;-62
2023/12/31 04:32:41;;;;;;;7.13;3.13;;;5.90;99.90;;;;;;4864988;29;20057;-61
2023/12/31 04:35:09;;;;;;;6.93;3.20;;;5.80;99.90;;;;;;4879183;29;20398;-61
2023/12/31 04:37:36;;;;;;;4.65;2.30;;;5.80;99.90;;;;;;4879223;29;20060;-61
2023/12/31 04:40:06;;;;;;;4.65;2.90;;;5.80;99.90;;;;;;4879012;29;20405;-61
2023/12/31 04:42:34;;;;;;;12.30;3.38;;;5.80;99.90;;;;;;4868284;29;20045;-62
2023/12/31 04:45:07;;;;;;;8.38;3.55;;;5.80;99.90;;;;;;4859412;29;20054;-60
2023/12/31 04:47:36;;;;;;;6.32;3.33;;;5.80;99.90;;;;;;4859245;29;20060;-61
2023/12/31 04:50:05;;;;;;;7.43;4.10;;;5.80;99.90;;;;;;4860573;29;20057;-61
2023/12/31 04:52:33;;;;;;;8.38;3.33;;;5.80;99.90;;;;;;4860315;29;20053;-61
2023/12/31 04:55:01;;;;;;;5.07;3.55;;;5.80;99.90;;;;;;4860390;29;20068;-60
2023/12/31 04:57:31;;;;;;;6.13;3.40;;;5.80;99.90;;;;;;4876236;29;20603;-62
2023/12/31 04:59:59;;;;;;;7.57;4.07;;;5.80;99.90;;;;;;4863633;29;20050;-61
2023/12/31 05:02:27;;;;;;;8.27;3.53;;;5.80;99.90;;;;;;4861489;29;20046;-63
2023/12/31 05:04:56;;;;;;;5.03;3.25;;;5.80;99.90;;;;;;4877429;29;20057;-61
2023/12/31 05:07:23;;;;;;;7.00;3.30;;;5.70;99.90;;;;;;4875551;29;20053;-63
2023/12/31 05:09:54;;;;;;;5.75;3.60;;;5.70;99.90;;;;;;4878577;29;20045;-64
2023/12/31 05:12:21;;;;;;;6.68;3.63;;;5.70;99.90;;;;;;4877226;29;20064;-65
2023/12/31 05:14:50;;;;;;;10.73;3.45;;;5.70;99.90;;;;;;4878557;29;20056;-67
2023/12/31 05:17:17;;;;;;;5.88;4.07;;;5.70;99.90;;;;;;4860922;29;20053;-60
2023/12/31 05:19:45;;;;;;;5.07;3.08;;;5.70;99.90;;;;;;4859979;29;20478;-62
2023/12/31 05:22:13;;;;;;;7.53;4.18;;;5.70;99.90;;;;;;4860030;29;20064;-61
2023/12/31 05:24:41;;;;;;;8.50;3.97;;;5.70;99.90;;;;;;4859938;29;20050;-61
2023/12/31 05:27:09;;;;;;;9.80;4.13;;;5.70;99.90;;;;;;4860002;29;20060;-62
2023/12/31 05:29:38;;;;;;;9.52;4.00;;;5.70;99.90;;;;;;4859722;29;20056;-61
2023/12/31 05:32:06;;;;;;;9.40;3.50;;;5.70;99.90;;;;;;4859490;29;20079;-63
2023/12/31 05:34:35;;;;;;;5.95;3.30;;;5.70;99.90;;;;;;4864263;29;20049;-60
2023/12/31 05:37:03;;;;;;;6.80;3.80;;;5.70;99.90;;;;;;4878271;29;20064;-61
2023/12/31 05:39:30;;;;;;;8.52;3.47;;;5.70;99.90;;;;;;4877793;29;20057;-60
2023/12/31 05:41:58;;;;;;;7.70;4.10;;;5.70;99.90;;;;;;4877943;29;20490;-61
2023/12/31 05:44:27;;;;;;;6.97;3.40;;;5.70;99.90;;;;;;4875462;29;20049;-62
2023/12/31 05:46:55;;;;;;;9.32;4.15;;;5.70;99.90;;;;;;4874260;29;20056;-61
2023/12/31 05:49:23;;;;;;;8.77;4.05;;;5.70;99.90;;;;;;4867081;29;20061;-60
2023/12/31 05:51:51;;;;;;;7.55;4.15;;;5.70;99.90;;;;;;4860439;29;20516;-63
2023/12/31 05:54:19;;;;;;;10.50;4.05;;;5.80;99.90;;;;;;4874698;29;20506;-62
2023/12/31 05:56:47;;;;;;;8.57;4.55;;;5.80;99.90;;;;;;4862888;29;20050;-61
2023/12/31 05:59:15;;;;;;;8.25;4.30;;;5.70;99.90;;;;;;4854663;29;20530;-61
2023/12/31 06:01:43;;;;;;;7.28;4.47;;;5.80;99.90;;;;;;4855230;29;20044;-61
2023/12/31 06:04:11;;;;;;;6.78;4.40;;;5.80;99.90;;;;;;4868948;29;20053;-61
2023/12/31 06:06:39;;;;;;;8.48;4.13;;;5.80;99.90;;;;;;4870188;29;20466;-61
2023/12/31 06:09:07;;;;;;;7.88;4.70;;;5.80;99.90;;;;;;4872753;29;20057;-61
2023/12/31 06:11:38;;;;;;;7.95;3.80;;;5.80;99.90;;;;;;4874444;29;20057;-60
2023/12/31 06:14:07;;;;;;;8.80;4.20;;;5.80;99.90;;;;;;4874021;29;20061;-60
2023/12/31 06:16:35;;;;;;;12.40;4.37;;;5.80;99.90;;;;;;4873179;29;20045;-61
2023/12/31 06:19:03;;;;;;;8.90;3.70;;;5.80;99.90;;;;;;4857645;29;20434;-60
2023/12/31 06:21:32;;;;;;;8.50;4.28;;;5.90;99.90;;;;;;4852745;29;20060;-61
2023/12/31 06:24:00;;;;;;;7.35;3.80;;;5.80;99.90;;;;;;4861542;29;20046;-61
2023/12/31 06:26:29;;;;;;;10.02;4.68;;;5.80;99.90;;;;;;4872184;29;20060;-60
2023/12/31 06:28:57;;;;;;;6.50;4.03;;;5.80;99.90;;;;;;4874120;29;20060;-62
2023/12/31 06:31:26;;;;;;;8.57;4.05;;;5.80;99.90;;;;;;4874061;29;20049;-61
2023/12/31 06:33:54;;;;;;;8.35;4.03;;;5.70;99.90;;;;;;4872237;29;20057;-61
2023/12/31 06:36:22;;;;;;;6.90;4.10;;;5.70;99.90;;;;;;4869713;29;20061;-61
2023/12/31 06:38:54;;;;;;;9.05;3.88;;;5.60;99.90;;;;;;4866939;29;20052;-62
2023/12/31 06:41:22;;;;;;;8.00;3.90;;;5.60;99.90;;;;;;4871912;29;20375;-62
2023/12/31 06:43:51;;;;;;;5.95;3.55;;;5.50;99.90;;;;;;4874682;29;20057;-63
2023/12/31 06:46:18;;;;;;;5.43;3.63;;;5.50;99.90;;;;;;4878011;29;20052;-62
2023/12/31 06:48:46;;;;;;;6.60;3.40;;;5.40;99.90;;;;;;4865368;29;20049;-69
2023/12/31 06:51:14;;;;;;;8.65;3.40;;;5.40;99.90;;;;;;4859227;29;20054;-68
2023/12/31 06:53:42;;;;;;;10.27;4.10;;;5.40;99.90;;;;;;4867944;29;20079;-63
2023/12/31 06:56:10;;;;;;;6.63;3.28;;;5.30;99.90;;;;;;4866322;29;20057;-65
2023/12/31 06:58:38;;;;;;;6.95;3.05;;;5.30;99.90;;;;;;4876320;29;20064;-68
2023/12/31 07:01:06;;;;;;;2.83;2.17;;;5.20;99.90;;;;;;4876337;29;20053;-65
2023/12/31 07:03:35;;;;;;;6.65;3.22;;;5.20;99.90;;;;;;4864928;29;20068;-73
2023/12/31 07:06:03;;;;;;;6.50;3.15;;;5.20;99.90;;;;;;4856252;29;20058;-63
2023/12/31 07:08:32;;;;;;;7.72;2.92;;;5.10;99.90;;;;;;4867122;29;20053;-63
2023/12/31 07:10:59;;;;;;;5.90;2.80;;;5.10;99.90;;;;;;4864128;29;20053;-68
2023/12/31 07:13:27;;;;;;;6.28;2.65;;;5.10;99.90;;;;;;4865460;29;20057;-64
2023/12/31 07:15:58;;;;;;;4.32;2.22;;;5.10;99.90;;;;;;4874144;29;20056;-64
2023/12/31 07:18:27;;;;;;;5.53;2.60;;;5.00;99.90;;;;;;4864999;29;20049;-62
2023/12/31 07:20:55;;;;;;;4.43;2.30;;;5.00;99.90;;;;;;4867551;29;20478;-62
2023/12/31 07:23:24;;;;;;;10.52;2.22;;;5.00;99.90;;;;;;4872256;29;20049;-62
2023/12/31 07:25:51;;;;;;;6.10;2.40;;;5.00;99.90;;;;;;4858891;29;20403;-63
2023/12/31 07:28:19;;;;;;;8.63;2.80;;;4.90;99.90;;;;;;4865702;29;20482;-64
2023/12/31 07:30:48;;;;;;;5.25;2.13;;;4.90;99.90;;;;;;4876618;29;20041;-67
2023/12/31 07:33:16;;;;;;;4.57;2.00;;;4.90;99.90;;;;;;4865325;29;20053;-61
2023/12/31 07:35:43;;;;;;;6.70;2.05;;;4.90;99.90;;;;;;4855321;29;20048;-61
2023/12/31 07:38:12;;;;;;;4.78;1.90;;;4.90;99.90;;;;;;4866721;29;20049;-61
2023/12/31 07:40:40;;;;;;;4.93;1.70;;;4.90;99.90;;;;;;4877160;29;20056;-61
2023/12/31 07:43:08;;;;;;;8.27;1.70;;;4.90;99.90;;;;;;4876685;29;20065;-61
2023/12/31 07:45:36;;;;;;;3.38;1.55;;;4.90;99.90;;;;;;4867546;29;20046;-61
2023/12/31 07:48:08;;;;;;;7.78;1.98;;;5.00;99.90;;;;;;4863279;29;20045;-61
2023/12/31 07:50:37;;;;;;;3.97;1.70;;;5.10;99.90;;;;;;4858309;29;20041;-61
2023/12/31 07:53:05;;;;;;;3.05;1.80;;;5.10;99.90;;;;;;4866229;29;20056;-61
2023/12/31 07:55:34;;;;;;;4.65;1.63;;;5.10;99.90;;;;;;4873567;29;20060;-61
2023/12/31 07:58:01;;;;;;;2.90;1.50;;;5.20;99.90;;;;;;4865152;29;20056;-61
2023/12/31 08:00:29;;;;;;;4.38;1.50;;;5.20;99.90;;;;;;4867112;29;20054;-62
2023/12/31 08:02:57;;;;;;;7.03;1.55;;;5.20;99.90;;;;;;4857757;29;20064;-62
2023/12/31 08:05:25;;;;;;;4.72;1.40;;;5.30;99.90;;;;;;4855166;29;20068;-61
2023/12/31 08:07:53;;;;;;;6.43;1.30;;;5.30;99.90;;;;;;4862823;29;20057;-61
2023/12/31 08:10:22;;;;;;;5.55;1.13;;;5.30;99.90;;;;;;4876415;29;20610;-63
2023/12/31 08:12:50;;;;;;;3.25;0.98;;;5.20;99.90;;;;;;4875856;29;20053;-61
2023/12/31 08:15:17;;;;;;;2.92;1.15;;;5.40;99.90;;;;;;4876267;29;20060;-61
2023/12/31 08:17:45;;;;;;;3.90;0.90;;;5.40;99.90;;;;;;4862127;29;20252;-62
2023/12/31 08:20:13;;;;;;;2.88;1.30;;;5.40;99.90;;;;;;4859595;29;20057;-62
2023/12/31 08:22:42;;;;;;;6.05;1.40;;;5.40;99.90;;;;;;4862556;29;20053;-62
2023/12/31 08:25:09;;;;;;;2.60;1.17;;;5.40;99.90;;;;;;4876503;29;20052;-62
2023/12/31 08:27:37;;;;;;;2.05;1.20;;;5.50;99.90;;;;;;4871042;29;20482;-62
2023/12/31 08:30:06;;;;;;;16.90;2.05;;;5.50;99.90;;;;;;4864159;29;20050;-62
2023/12/31 08:32:34;;;;;;;7.82;1.60;;;5.50;99.90;;;;;;4861397;29;20048;-61
2023/12/31 08:35:01;;;;;;;7.57;1.35;;;5.50;99.90;;;;;;4858626;29;20065;-61
2023/12/31 08:37:30;;;;;;;14.85;1.95;;;5.50;99.90;;;;;;4874480;29;20057;-62
2023/12/31 08:39:58;;;;;;;6.47;1.40;;;5.50;99.90;;;;;;4876018;29;20052;-62
2023/12/31 08:42:27;;;;;;;8.30;2.03;;;5.50;99.90;;;;;;4875884;29;20052;-62
2023/12/31 08:44:55;;;;;;;13.90;1.92;;;5.50;99.90;;;;;;4859852;29;20068;-64
2023/12/31 08:47:33;;;;;;;7.10;1.48;;;5.50;99.90;;;;;;4860456;29;20067;-62
2023/12/31 08:50:07;;;;;;;6.30;1.40;;;5.60;99.90;;;;;;4868952;29;20084;-62
2023/12/31 08:52:47;;;;;;;5.60;0.88;;;5.50;99.90;;;;;;4875232;29;20057;-66
2023/12/31 08:55:15;;;;;;;3.05;0.90;;;5.60;99.90;;;;;;4857199;29;20081;-65
2023/12/31 08:57:46;;;;;;;6.40;1.00;;;5.60;99.90;;;;;;4874588;29;20049;-64
2023/12/31 09:00:17;;;;;;;9.63;1.85;;;5.60;99.90;;;;;;4857081;29;20053;-61
2023/12/31 09:02:47;;;;;;;7.10;2.15;;;5.70;99.90;;;;;;4858019;29;20498;-64
2023/12/31 09:05:15;;;;;;;11.27;2.15;;;5.70;99.90;;;;;;4861193;29;20037;-63
2023/12/31 09:07:43;;;;;;;8.35;1.30;;;5.70;99.90;;;;;;4863579;29;20053;-64
2023/12/31 09:10:12;;;;;;;19.42;3.20;;;5.80;99.90;;;;;;4875511;29;20056;-60
2023/12/31 09:12:40;;;;;;;3.88;0.90;;;5.80;99.90;;;;;;4870426;29;20056;-62
2023/12/31 09:15:08;;;;;;;8.15;1.45;;;5.80;99.90;;;;;;4874130;29;20061;-63
2023/12/31 09:17:36;;;;;;;4.53;1.00;;;5.80;99.90;;;;;;4872896;29;20059;-62
2023/12/31 09:20:06;;;;;;;8.27;1.05;;;5.90;99.90;;;;;;4864936;29;20064;-63
2023/12/31 09:22:35;;;;;;;6.22;0.80;;;5.90;99.90;;;;;;4860651;29;20072;-66
2023/12/31 09:25:05;;;;;;;12.85;1.45;;;5.90;99.90;;;;;;4875018;29;20060;-67
2023/12/31 09:27:35;;;;;;;8.88;1.05;;;6.00;99.90;;;;;;4872441;29;20048;-67
2023/12/31 09:30:04;;;;;;;10.20;1.20;;;5.90;99.90;;;;;;4873837;29;20048;-61
2023/12/31 09:32:33;;;;;;;5.97;0.73;;;6.00;99.90;;;;;;4874797;29;20056;-64
2023/12/31 09:35:01;;;;;;;11.48;1.63;;;6.00;99.90;;;;;;4864035;29;20770;-61
2023/12/31 09:37:32;;;;;;;6.95;0.98;;;6.00;99.90;;;;;;4861659;29;20045;-61
2023/12/31 09:39:59;;;;;;;11.48;1.05;;;6.00;99.90;;;;;;4856192;29;20065;-64
2023/12/31 09:42:47;;;;;;;9.88;1.23;;;6.00;99.90;;;;;;4844906;29;20052;-70
2023/12/31 09:45:24;;;;;;;5.22;1.02;;;5.90;99.90;;;;;;4856614;29;20056;-62
2023/12/31 09:47:54;;;;;;;9.68;1.13;;;5.90;99.90;;;;;;4861258;29;20060;-61
2023/12/31 09:50:23;;;;;;;4.45;1.00;;;5.80;99.90;;;;;;4863312;29;20054;-60
2023/12/31 09:52:57;;;;;;;6.22;1.42;;;5.80;99.90;;;;;;4862346;29;20049;-62
2023/12/31 09:55:27;;;;;;;12.55;1.00;;;5.80;99.90;;;;;;4874803;29;20062;-63
2023/12/31 09:57:56;;;;;;;7.60;1.33;;;5.80;99.90;;;;;;4857857;29;20037;-63
2023/12/31 10:00:24;;;;;;;8.43;0.95;;;5.90;99.90;;;;;;4873716;29;20048;-62
2023/12/31 10:02:51;;;;;;;5.55;1.00;;;5.90;99.90;;;;;;4870354;29;20046;-67
2023/12/31 10:05:26;;;;;;;8.43;1.02;;;6.00;99.90;;;;;;4864378;29;20486;-61
2023/12/31 10:07:54;;;;;;;4.07;0.70;;;6.10;99.90;;;;;;4861917;29;20049;-61
2023/12/31 10:10:25;;;;;;;3.40;0.85;;;6.20;99.90;;;;;;4858873;29;20060;-60
2023/12/31 10:12:53;;;;;;;5.65;0.77;;;6.20;99.90;;;;;;4843955;29;20057;-60
2023/12/31 10:15:21;;;;;;;11.63;2.08;;;6.20;99.90;;;;;;4838938;29;20064;-61
2023/12/31 10:17:51;;;;;;;4.20;0.93;;;6.20;99.90;;;;;;4858985;29;20053;-61
2023/12/31 10:20:20;;;;;;;9.15;1.20;;;6.20;99.90;;;;;;4859434;29;20044;-65
2023/12/31 10:22:48;;;;;;;6.80;1.05;;;6.20;99.90;;;;;;4872395;29;20405;-64
2023/12/31 10:25:18;;;;;;;11.88;1.20;;;6.20;99.90;;;;;;4873336;29;20053;-60
2023/12/31 10:27:47;;;;;;;10.70;1.30;;;6.30;99.90;;;;;;4874203;29;20049;-67
2023/12/31 10:30:18;;;;;;;6.40;0.93;;;6.30;99.90;;;;;;4874213;29;20049;-61
2023/12/31 10:32:50;;;;;;;7.13;1.27;;;6.40;99.90;;;;;;4867661;29;20054;-63
2023/12/31 10:35:20;;;;;;;4.57;0.80;;;6.40;99.90;;;;;;4863129;29;20057;-61
2023/12/31 10:38:01;;;;;;;5.55;0.70;;;6.50;99.90;;;;;;4860982;29;20060;-64
2023/12/31 10:40:29;;;;;;;3.70;0.80;;;6.40;99.90;;;;;;4864429;29;20050;-61
2023/12/31 10:42:57;;;;;;;4.20;0.50;;;6.40;99.90;;;;;;4860648;29;20509;-61
2023/12/31 10:45:26;;;;;;;6.15;0.60;;;6.30;99.90;;;;;;4869117;29;20049;-65
2023/12/31 10:48:01;;;;;;;1.90;0.88;;;6.30;99.90;;;;;;4860282;29;20049;-61
2023/12/31 10:50:31;;;;;;;7.38;0.52;;;6.30;99.90;;;;;;4864538;29;20061;-68
2023/12/31 10:53:02;;;;;;;3.95;0.47;;;6.30;99.90;;;;;;4857650;29;20049;-65
2023/12/31 10:55:33;;;;;;;4.03;0.30;;;6.30;99.90;;;;;;4866360;29;20050;-68
2023/12/31 10:58:01;;;;;;;6.70;0.80;;;6.20;99.90;;;;;;4857361;29;20046;-65
2023/12/31 11:00:30;;;;;;;6.78;0.98;;;6.20;99.90;;;;;;4864141;29;20045;-68
2023/12/31 11:03:00;;;;;;;4.18;0.80;;;6.20;99.90;;;;;;4872565;29;20049;-71
2023/12/31 11:05:31;;;;;;;4.28;0.52;;;6.10;99.90;;;;;;4865589;29;20037;-64
2023/12/31 11:08:00;;;;;;;6.60;1.90;;;6.20;99.90;;;;;;4861881;29;20049;-70
2023/12/31 11:10:29;;;;;;;8.02;0.80;;;6.20;99.90;;;;;;4874036;29;20552;-69
2023/12/31 11:12:59;;;;;;;3.22;0.50;;;6.20;99.90;;;;;;4861860;29;20719;-67
2023/12/31 11:15:27;;;;;;;;;;;6.20;99.90;;;;;;4861672;29;20052;-64
2023/12/31 11:18:13;;;;;;;3.60;0.38;;;6.20;99.90;;;;;;4871592;29;19924;-62
2023/12/31 11:21:22;;;;;;;2.47;0.63;;;6.20;99.90;;;;;;4862115;29;20053;-65
2023/12/31 11:24:10;;;;;;;;;;;6.20;99.90;;;;;;4868123;29;20057;-61
2023/12/31 11:26:40;;;;;;;2.40;0.90;;;6.20;99.90;;;;;;4874286;29;20082;-61
2023/12/31 11:29:11;;;;;;;3.05;0.50;;;6.20;99.90;;;;;;4869035;29;20510;-61
2023/12/31 11:31:44;;;;;;;3.75;0.90;;;6.10;99.90;;;;;;4858508;29;20424;-60
2023/12/31 11:34:18;;;;;;;5.78;1.38;;;6.20;99.90;;;;;;4874540;29;20040;-61
2023/12/31 11:36:46;;;;;;;2.33;0.90;;;6.10;99.90;;;;;;4862122;29;20056;-61
2023/12/31 11:39:17;;;;;;;4.38;0.70;;;6.10;99.90;;;;;;4872317;29;20071;-62
2023/12/31 11:41:49;;;;;;;2.42;0.98;;;6.10;99.90;;;;;;4859949;29;20049;-64
2023/12/31 11:44:37;;;;;;;3.05;0.65;;;6.10;99.90;;;;;;4876273;29;20037;-63
2023/12/31 11:47:16;;;;;;;3.63;0.60;;;6.20;99.90;;;;;;4876794;29;20053;-61
2023/12/31 11:49:51;;;;;;;2.25;0.93;;;6.20;99.90;;;;;;4876985;29;20068;-62
2023/12/31 11:52:35;;;;;;;2.33;0.40;;;6.20;99.90;;;;;;4856894;29;20065;-62
2023/12/31 11:55:03;;;;;;;2.22;0.57;;;6.20;99.90;;;;;;4872902;29;20407;-62
2023/12/31 11:57:32;;;;;;;3.75;0.63;;;6.20;99.90;;;;;;4860380;29;20533;-61
2023/12/31 12:00:06;;;;;;;8.45;0.95;;;6.40;99.90;;;;;;4876680;29;20053;-60
2023/12/31 12:02:35;;;;;;;4.82;0.75;;;6.50;99.90;;;;;;4874909;29;20049;-60
2023/12/31 12:05:04;;;;;;;2.25;0.60;;;6.70;99.90;;;;;;4857346;29;20056;-60
2023/12/31 12:07:32;;;;;;;1.40;0.60;;;7.00;99.90;;;;;;4857679;29;20534;-61
2023/12/31 12:10:00;;;;;;;5.00;0.60;;;7.00;99.90;;;;;;4859553;29;20502;-63
2023/12/31 12:12:30;;;;;;;4.30;0.93;;;7.00;99.90;;;;;;4858014;29;20529;-62
2023/12/31 12:14:57;;;;;;;7.75;0.73;;;7.10;99.90;;;;;;4857558;29;20053;-66
2023/12/31 12:17:29;;;;;;;5.38;0.77;;;7.30;99.90;;;;;;4862636;29;20041;-67
2023/12/31 12:19:57;;;;;;;3.05;0.45;;;7.30;99.90;;;;;;4876395;29;20060;-69
2023/12/31 12:22:26;;;;;;;3.05;0.50;;;7.30;99.90;;;;;;4859739;29;20052;-68
2023/12/31 12:24:56;;;;;;;3.20;1.40;;;7.20;99.90;;;;;;4876205;29;20647;-66
2023/12/31 12:27:25;;;;;;;3.33;0.98;;;7.10;99.90;;;;;;4873184;29;20045;-66
2023/12/31 12:29:53;;;;;;;5.10;0.60;;;7.00;99.90;;;;;;4874836;29;20056;-66
2023/12/31 12:32:22;;;;;;;1.77;0.50;;;6.90;99.90;;;;;;4872918;29;20048;-61
2023/12/31 12:34:52;;;;;;;2.60;0.52;;;6.90;99.90;;;;;;4871325;29;20058;-63
2023/12/31 12:37:21;;;;;;;1.75;0.82;;;7.00;99.90;;;;;;4859315;29;20054;-69
2023/12/31 12:39:57;;;;;;;4.32;0.65;;;7.10;99.90;;;;;;4857825;29;20057;-62
2023/12/31 12:42:29;;;;;;;4.20;0.80;;;7.20;99.90;;;;;;4856664;29;20056;-64
2023/12/31 12:44:58;;;;;;;2.88;0.55;;;7.30;99.90;;;;;;4873489;29;20061;-62
2023/12/31 12:47:25;;;;;;;3.25;1.00;;;7.40;99.90;;;;;;4866545;29;20053;-67
2023/12/31 12:49:54;;;;;;;3.00;1.42;;;7.40;99.90;;;;;;4875353;29;20057;-67
2023/12/31 12:52:22;;;;;;;3.70;0.57;;;7.30;99.90;;;;;;4860175;29;20050;-60
2023/12/31 12:54:50;;;;;;;3.50;0.60;;;7.20;99.90;;;;;;4868671;29;20045;-60
2023/12/31 12:57:18;;;;;;;2.40;0.80;;;7.10;99.90;;;;;;4873483;29;20049;-60
2023/12/31 12:59:46;;;;;;;5.57;0.90;;;7.10;99.90;;;;;;4856910;29;20057;-60
2023/12/31 13:02:14;;;;;;;6.88;0.88;;;7.10;99.90;;;;;;4872386;29;20060;-61
2023/12/31 13:04:42;;;;;;;4.80;0.68;;;7.10;99.90;;;;;;4859804;29;20050;-61
2023/12/31 13:07:10;;;;;;;3.25;0.70;;;7.40;99.90;;;;;;4861443;29;20044;-64